createdAt,value
2018-03-06T00:02:26.453Z,73.20
2018-03-06T00:04:53.508Z,73.30
2018-03-06T00:07:20.559Z,73.40
2018-03-06T00:09:47.538Z,73.40
2018-03-06T00:12:14.503Z,73.30
2018-03-06T00:14:41.479Z,73.20
2018-03-06T00:17:08.451Z,72.30
2018-03-06T00:19:36.195Z,72.00
2018-03-06T00:22:03.164Z,72.00
2018-03-06T00:24:30.182Z,72.10
2018-03-06T00:26:57.247Z,71.90
2018-03-06T00:29:24.219Z,71.90
2018-03-06T00:31:51.199Z,72.60
2018-03-06T00:34:18.175Z,72.30
2018-03-06T00:36:45.907Z,73.90
2018-03-06T00:39:12.955Z,73.40
2018-03-06T00:41:39.927Z,73.70
2018-03-06T00:44:06.917Z,74.30
2018-03-06T00:46:33.884Z,74.80
2018-03-06T00:49:01.719Z,75.70
2018-03-06T00:51:28.691Z,75.50
2018-03-06T00:53:55.667Z,75.70
2018-03-06T00:56:22.675Z,75.70
2018-03-06T00:58:50.379Z,75.50
2018-03-06T01:01:17.424Z,75.40
2018-03-06T01:03:44.404Z,75.30
2018-03-06T01:06:11.371Z,75.20
2018-03-06T01:08:38.348Z,75.00
2018-03-06T01:11:06.174Z,74.70
2018-03-06T01:13:33.154Z,75.40
2018-03-06T01:16:00.123Z,74.50
2018-03-06T01:18:28.077Z,74.40
2018-03-06T01:20:55.040Z,74.20
2018-03-06T01:23:22.011Z,74.10
2018-03-06T01:25:48.992Z,74.00
2018-03-06T01:28:17.031Z,73.90
2018-03-06T01:30:44.099Z,74.10
2018-03-06T01:33:11.067Z,73.80
2018-03-06T01:35:38.047Z,73.70
2018-03-06T01:38:05.015Z,73.70
2018-03-06T01:40:32.755Z,72.70
2018-03-06T01:42:59.723Z,72.60
2018-03-06T01:45:26.767Z,72.90
2018-03-06T01:47:53.735Z,73.00
2018-03-06T01:50:20.715Z,73.30
2018-03-06T01:52:47.730Z,73.40
2018-03-06T01:55:14.707Z,73.80
2018-03-06T01:57:41.755Z,73.60
2018-03-06T02:00:08.735Z,74.10
2018-03-06T02:02:35.703Z,73.80
2018-03-06T02:05:02.734Z,73.80
2018-03-06T02:07:29.703Z,74.20
2018-03-06T02:09:56.753Z,74.30
2018-03-06T02:12:23.715Z,74.70
2018-03-06T02:14:50.694Z,74.50
2018-03-06T02:17:17.722Z,74.70
2018-03-06T02:19:44.700Z,74.50
2018-03-06T02:22:11.663Z,74.50
2018-03-06T02:24:38.645Z,74.70
2018-03-06T02:27:05.609Z,74.70
2018-03-06T02:29:33.347Z,74.40
2018-03-06T02:32:00.395Z,74.40
2018-03-06T02:34:27.366Z,74.50
2018-03-06T02:36:54.406Z,74.70
2018-03-06T02:39:21.471Z,74.90
2018-03-06T02:41:48.531Z,75.00
2018-03-06T02:44:15.591Z,74.30
2018-03-06T02:46:42.559Z,74.30
2018-03-06T02:49:09.540Z,74.70
2018-03-06T02:51:36.567Z,75.40
2018-03-06T02:54:03.623Z,75.00
2018-03-06T02:56:30.595Z,75.10
2018-03-06T02:58:57.580Z,75.50
2018-03-06T03:01:24.549Z,76.00
2018-03-06T03:03:51.566Z,76.20
2018-03-06T03:06:18.623Z,76.10
2018-03-06T03:08:45.679Z,76.10
2018-03-06T03:11:12.651Z,75.90
2018-03-06T03:13:39.631Z,75.80
2018-03-06T03:16:06.659Z,75.80
2018-03-06T03:18:33.714Z,75.90
2018-03-06T03:21:00.712Z,75.70
2018-03-06T03:23:27.689Z,75.70
2018-03-06T03:25:55.537Z,75.50
2018-03-06T03:28:23.594Z,75.40
2018-03-06T03:30:50.568Z,75.40
2018-03-06T03:33:17.616Z,75.30
2018-03-06T03:35:44.601Z,75.30
2018-03-06T03:38:11.572Z,76.00
2018-03-06T03:40:38.547Z,75.30
2018-03-06T03:43:06.371Z,75.10
2018-03-06T03:45:33.426Z,75.10
2018-03-06T03:48:00.398Z,75.00
2018-03-06T03:50:27.383Z,75.00
2018-03-06T03:52:54.415Z,75.00
2018-03-06T03:55:21.388Z,75.00
2018-03-06T03:57:48.418Z,75.10
2018-03-06T04:00:15.400Z,75.20
2018-03-06T04:02:42.524Z,75.10
2018-03-06T04:05:10.250Z,75.20
2018-03-06T04:07:37.219Z,75.90
2018-03-06T04:10:04.235Z,75.20
2018-03-06T04:12:31.208Z,75.10
2018-03-06T04:14:58.250Z,75.30
2018-03-06T04:17:25.210Z,75.40
2018-03-06T04:19:52.192Z,75.40
2018-03-06T04:22:19.161Z,75.40
2018-03-06T04:24:46.143Z,75.40
2018-03-06T04:27:13.883Z,75.50
2018-03-06T04:29:40.915Z,75.50
2018-03-06T04:32:07.983Z,75.50
2018-03-06T04:34:34.962Z,75.70
2018-03-06T04:37:01.934Z,75.70
2018-03-06T04:39:28.958Z,75.90
2018-03-06T04:41:55.927Z,75.70
2018-03-06T04:44:22.974Z,75.80
2018-03-06T04:46:50.039Z,75.80
2018-03-06T04:49:17.022Z,75.60
2018-03-06T04:51:44.055Z,75.50
2018-03-06T04:54:11.119Z,75.50
2018-03-06T04:56:38.170Z,75.50
2018-03-06T04:59:05.234Z,75.50
2018-03-06T05:01:32.217Z,75.60
2018-03-06T05:03:59.251Z,75.50
2018-03-06T05:06:26.234Z,75.60
2018-03-06T05:08:53.272Z,75.60
2018-03-06T05:11:20.247Z,75.70
2018-03-06T05:13:47.211Z,75.70
2018-03-06T05:16:14.199Z,75.60
2018-03-06T05:18:41.940Z,75.50
2018-03-06T05:21:08.911Z,75.40
2018-03-06T05:23:35.874Z,75.50
2018-03-06T05:26:02.855Z,75.50
2018-03-06T05:28:31.510Z,75.70
2018-03-06T05:30:58.486Z,75.60
2018-03-06T05:33:25.455Z,75.70
2018-03-06T05:35:52.467Z,75.80
2018-03-06T05:38:20.382Z,75.90
2018-03-06T05:40:47.411Z,75.90
2018-03-06T05:43:14.471Z,76.10
2018-03-06T05:45:41.527Z,75.90
2018-03-06T05:48:08.587Z,75.90
2018-03-06T05:50:35.559Z,76.10
2018-03-06T05:53:02.532Z,76.10
2018-03-06T05:55:29.507Z,76.10
2018-03-06T05:57:56.519Z,76.00
2018-03-06T06:00:23.502Z,76.10
2018-03-06T06:02:50.474Z,76.10
2018-03-06T06:05:17.450Z,75.90
2018-03-06T06:07:45.187Z,75.90
2018-03-06T06:10:12.231Z,75.80
2018-03-06T06:12:39.303Z,76.10
2018-03-06T06:15:06.279Z,76.00
2018-03-06T06:17:33.284Z,76.00
2018-03-06T06:20:00.275Z,76.00
2018-03-06T06:22:27.242Z,76.10
2018-03-06T06:24:54.224Z,76.20
2018-03-06T06:27:21.183Z,76.00
2018-03-06T06:29:48.208Z,76.00
2018-03-06T06:32:15.178Z,76.10
2018-03-06T06:34:42.228Z,76.00
2018-03-06T06:37:09.279Z,75.90
2018-03-06T06:39:36.347Z,75.70
2018-03-06T06:42:03.403Z,75.70
2018-03-06T06:44:30.371Z,75.70
2018-03-06T06:46:57.355Z,75.80
2018-03-06T06:49:24.323Z,75.80
2018-03-06T06:51:51.300Z,75.90
2018-03-06T06:54:19.031Z,75.90
2018-03-06T06:56:46.008Z,75.90
2018-03-06T06:59:13.035Z,75.90
2018-03-06T07:01:40.097Z,75.80
2018-03-06T07:04:07.071Z,75.70
2018-03-06T07:06:34.042Z,75.60
2018-03-06T07:09:01.071Z,75.50
2018-03-06T07:11:28.123Z,75.30
2018-03-06T07:13:55.182Z,75.10
2018-03-06T07:16:22.247Z,74.80
2018-03-06T07:18:49.218Z,74.50
2018-03-06T07:21:16.279Z,74.40
2018-03-06T07:23:43.328Z,74.00
2018-03-06T07:26:10.310Z,74.00
2018-03-06T07:28:37.350Z,74.10
2018-03-06T07:31:04.398Z,73.80
2018-03-06T07:33:31.370Z,73.50
2018-03-06T07:35:58.347Z,73.50
2018-03-06T07:38:25.319Z,73.30
2018-03-06T07:40:52.343Z,72.90
2018-03-06T07:43:19.319Z,72.70
2018-03-06T07:45:46.293Z,72.60
2018-03-06T07:48:13.315Z,72.30
2018-03-06T07:50:40.296Z,72.00
2018-03-06T07:53:07.331Z,71.60
2018-03-06T07:55:34.427Z,71.60
2018-03-06T07:58:02.908Z,71.10
2018-03-06T08:00:29.892Z,71.10
2018-03-06T08:02:56.903Z,71.10
2018-03-06T08:05:23.875Z,70.50
2018-03-06T08:07:50.847Z,70.20
2018-03-06T08:10:17.828Z,69.70
2018-03-06T08:12:45.570Z,69.20
2018-03-06T08:15:12.539Z,69.10
2018-03-06T08:17:39.555Z,68.80
2018-03-06T08:20:07.346Z,68.20
2018-03-06T08:22:34.324Z,68.20
2018-03-06T08:25:01.368Z,67.80
2018-03-06T08:27:28.423Z,67.40
2018-03-06T08:29:55.491Z,67.40
2018-03-06T08:32:22.548Z,67.20
2018-03-06T08:34:49.514Z,66.70
2018-03-06T08:37:16.496Z,66.70
2018-03-06T08:39:43.528Z,66.80
2018-03-06T08:42:10.508Z,66.80
2018-03-06T08:44:37.479Z,66.70
2018-03-06T08:47:05.368Z,66.50
2018-03-06T08:49:33.198Z,66.60
2018-03-06T08:52:00.170Z,66.60
2018-03-06T08:54:27.143Z,66.00
2018-03-06T08:56:54.171Z,65.90
2018-03-06T08:59:21.235Z,66.20
2018-03-06T09:01:48.300Z,65.80
2018-03-06T09:04:15.272Z,66.30
2018-03-06T09:06:42.310Z,66.20
2018-03-06T09:09:09.383Z,66.00
2018-03-06T09:11:36.368Z,66.00
2018-03-06T09:14:03.387Z,65.90
2018-03-06T09:16:30.367Z,65.90
2018-03-06T09:18:57.339Z,65.80
2018-03-06T09:21:24.315Z,65.80
2018-03-06T09:23:51.282Z,65.50
2018-03-06T09:26:19.103Z,65.20
2018-03-06T09:28:46.071Z,65.10
2018-03-06T09:31:13.118Z,64.60
2018-03-06T09:33:40.183Z,64.20
2018-03-06T09:36:07.159Z,65.20
2018-03-06T09:38:35.123Z,64.00
2018-03-06T09:41:02.111Z,63.60
2018-03-06T09:43:29.071Z,63.50
2018-03-06T09:45:56.092Z,63.30
2018-03-06T09:48:23.059Z,62.50
2018-03-06T09:50:50.040Z,62.00
2018-03-06T09:53:17.011Z,62.60
2018-03-06T09:55:43.983Z,60.90
2018-03-06T09:58:11.834Z,60.70
2018-03-06T10:00:38.799Z,60.60
2018-03-06T10:03:05.807Z,60.70
2018-03-06T10:05:33.608Z,60.90
2018-03-06T10:08:00.588Z,60.80
2018-03-06T10:10:27.628Z,60.30
2018-03-06T10:12:54.688Z,59.40
2018-03-06T10:15:23.656Z,59.40
2018-03-06T10:17:50.620Z,59.10
2018-03-06T10:20:17.592Z,59.30
2018-03-06T10:22:44.666Z,59.70
2018-03-06T10:25:11.736Z,58.70
2018-03-06T10:27:38.791Z,58.10
2018-03-06T10:30:05.764Z,58.00
2018-03-06T10:32:32.812Z,57.50
2018-03-06T10:34:59.780Z,57.20
2018-03-06T10:37:26.827Z,56.00
2018-03-06T10:39:53.808Z,55.90
2018-03-06T10:42:20.788Z,55.90
2018-03-06T10:44:48.620Z,55.80
2018-03-06T10:47:15.604Z,55.80
2018-03-06T10:49:42.636Z,55.70
2018-03-06T10:52:09.616Z,56.30
2018-03-06T10:54:36.864Z,55.80
2018-03-06T10:57:03.920Z,55.90
2018-03-06T10:59:30.980Z,56.10
2018-03-06T11:01:57.963Z,56.20
2018-03-06T11:04:24.958Z,57.00
2018-03-06T11:06:52.771Z,57.30
2018-03-06T11:09:19.745Z,57.20
2018-03-06T11:11:46.798Z,57.00
2018-03-06T11:14:13.795Z,57.00
2018-03-06T11:16:40.789Z,57.10
2018-03-06T11:19:08.588Z,56.80
2018-03-06T11:21:35.643Z,56.80
2018-03-06T11:24:02.626Z,57.30
2018-03-06T11:26:29.607Z,56.90
2018-03-06T11:28:56.578Z,56.80
2018-03-06T11:31:24.395Z,56.40
2018-03-06T11:33:51.463Z,56.40
2018-03-06T11:36:18.422Z,55.80
2018-03-06T11:38:45.407Z,56.90
2018-03-06T11:41:12.375Z,56.40
2018-03-06T11:43:39.358Z,56.30
2018-03-06T11:46:07.172Z,56.00
2018-03-06T11:48:34.142Z,56.00
2018-03-06T11:51:01.115Z,56.10
2018-03-06T11:53:28.096Z,55.30
2018-03-06T11:55:55.835Z,54.20
2018-03-06T11:58:22.818Z,54.20
2018-03-06T12:00:49.834Z,54.30
2018-03-06T12:03:16.894Z,53.90
2018-03-06T12:05:43.955Z,54.00
2018-03-06T12:08:11.022Z,54.30
2018-03-06T12:10:38.079Z,54.80
2018-03-06T12:13:05.138Z,53.70
2018-03-06T12:15:32.194Z,53.50
2018-03-06T12:17:59.179Z,52.80
2018-03-06T12:20:26.146Z,52.90
2018-03-06T12:22:53.176Z,52.40
2018-03-06T12:25:20.146Z,52.50
2018-03-06T12:27:47.132Z,52.20
2018-03-06T12:30:14.151Z,51.80
2018-03-06T12:32:41.135Z,50.70
2018-03-06T12:35:09.624Z,51.50
2018-03-06T12:37:36.799Z,51.50
2018-03-06T12:40:03.819Z,50.70
2018-03-06T12:42:30.803Z,50.40
2018-03-06T12:44:57.783Z,49.60
2018-03-06T12:47:24.758Z,49.80
2018-03-06T12:49:52.574Z,49.30
2018-03-06T12:52:19.639Z,49.20
2018-03-06T12:54:46.634Z,49.20
2018-03-06T12:57:13.667Z,50.10
2018-03-06T12:59:40.726Z,48.50
2018-03-06T13:02:07.699Z,48.60
2018-03-06T13:04:34.726Z,48.40
2018-03-06T13:07:01.800Z,49.00
2018-03-06T13:09:28.767Z,48.30
2018-03-06T13:11:55.811Z,48.40
2018-03-06T13:14:22.783Z,47.50
2018-03-06T13:16:49.833Z,46.70
2018-03-06T13:19:16.815Z,45.30
2018-03-06T13:21:43.853Z,45.80
2018-03-06T13:24:10.836Z,44.10
2018-03-06T13:26:37.827Z,42.90
2018-03-06T13:29:05.643Z,40.80
2018-03-06T13:31:32.614Z,40.90
2018-03-06T13:33:59.632Z,40.60
2018-03-06T13:36:26.570Z,39.90
2018-03-06T13:38:54.330Z,39.50
2018-03-06T13:41:21.308Z,39.50
2018-03-06T13:43:49.053Z,39.90
2018-03-06T13:46:16.084Z,39.80
2018-03-06T13:48:43.063Z,39.70
2018-03-06T13:51:10.104Z,38.90
2018-03-06T13:53:37.087Z,39.40
2018-03-06T13:56:04.063Z,40.00
2018-03-06T13:58:31.040Z,39.40
2018-03-06T14:00:58.859Z,38.30
2018-03-06T14:03:25.931Z,38.30
2018-03-06T14:05:52.989Z,37.80
2018-03-06T14:08:19.963Z,38.30
2018-03-06T14:10:46.999Z,38.40
2018-03-06T14:13:13.978Z,37.80
2018-03-06T14:15:40.986Z,38.70
2018-03-06T14:18:07.979Z,39.00
2018-03-06T14:20:34.952Z,38.60
2018-03-06T14:23:01.936Z,38.70
2018-03-06T14:25:28.950Z,39.70
2018-03-06T14:27:55.927Z,39.40
2018-03-06T14:30:22.906Z,39.40
2018-03-06T14:32:50.655Z,40.30
2018-03-06T14:35:17.626Z,40.30
2018-03-06T14:37:44.664Z,40.70
2018-03-06T14:40:11.636Z,41.00
2018-03-06T14:42:38.615Z,40.90
2018-03-06T14:45:05.587Z,41.00
2018-03-06T14:47:33.326Z,41.70
2018-03-06T14:50:00.299Z,41.10
2018-03-06T14:52:27.281Z,41.30
2018-03-06T14:54:55.106Z,42.30
2018-03-06T14:57:22.166Z,42.30
2018-03-06T14:59:49.232Z,42.40
2018-03-06T15:02:16.287Z,42.60
2018-03-06T15:04:43.262Z,42.70
2018-03-06T15:07:10.241Z,42.80
2018-03-06T15:09:38.079Z,43.70
2018-03-06T15:12:05.147Z,43.70
2018-03-06T15:14:32.130Z,43.70
2018-03-06T15:16:59.891Z,45.50
2018-03-06T15:19:26.866Z,45.50
2018-03-06T15:21:55.356Z,46.50
2018-03-06T15:24:22.336Z,46.50
2018-03-06T15:26:50.074Z,47.10
2018-03-06T15:29:17.062Z,46.50
2018-03-06T15:31:44.087Z,47.20
2018-03-06T15:34:11.067Z,48.10
2018-03-06T15:36:38.044Z,48.00
2018-03-06T15:39:05.035Z,48.60
2018-03-06T15:41:32.015Z,48.20
2018-03-06T15:43:59.000Z,49.10
2018-03-06T15:46:26.869Z,49.80
2018-03-06T15:48:54.014Z,50.30
2018-03-06T15:51:21.079Z,50.30
2018-03-06T15:53:48.138Z,50.60
2018-03-06T15:56:15.202Z,50.20
2018-03-06T15:58:42.255Z,51.10
2018-03-06T16:01:09.232Z,50.40
2018-03-06T16:03:36.276Z,51.30
2018-03-06T16:06:03.247Z,51.70
2018-03-06T16:08:30.233Z,51.60
2018-03-06T16:10:57.207Z,51.60
2018-03-06T16:13:24.955Z,53.50
2018-03-06T16:15:51.936Z,53.40
2018-03-06T16:18:19.680Z,52.50
2018-03-06T16:20:46.718Z,52.50
2018-03-06T16:23:13.699Z,53.20
2018-03-06T16:25:40.683Z,53.20
2018-03-06T16:28:07.663Z,54.20
2018-03-06T16:30:34.656Z,54.40
2018-03-06T16:33:01.723Z,55.30
2018-03-06T16:35:28.695Z,54.90
2018-03-06T16:37:55.739Z,55.80
2018-03-06T16:40:22.715Z,54.90
2018-03-06T16:42:49.695Z,56.00
2018-03-06T16:45:16.711Z,56.00
2018-03-06T16:47:43.771Z,56.70
2018-03-06T16:50:10.748Z,56.40
2018-03-06T16:52:37.714Z,56.70
2018-03-06T16:55:04.752Z,57.30
2018-03-06T16:57:31.800Z,57.50
2018-03-06T16:59:59.808Z,58.70
2018-03-06T17:02:26.774Z,58.70
2018-03-06T17:04:53.829Z,58.80
2018-03-06T17:07:21.578Z,59.60
2018-03-06T17:09:48.560Z,59.60
2018-03-06T17:12:15.532Z,59.90
2018-03-06T17:14:42.511Z,60.20
2018-03-06T17:17:10.244Z,61.10
2018-03-06T17:19:37.295Z,61.00
2018-03-06T17:22:04.267Z,61.60
2018-03-06T17:24:31.306Z,61.90
2018-03-06T17:26:58.279Z,62.10
2018-03-06T17:29:25.265Z,62.30
2018-03-06T17:31:52.233Z,62.80
2018-03-06T17:34:19.247Z,62.80
2018-03-06T17:36:46.216Z,63.30
2018-03-06T17:39:13.264Z,63.30
2018-03-06T17:41:40.356Z,63.60
2018-03-06T17:44:07.331Z,64.00
2018-03-06T17:46:35.079Z,64.70
2018-03-06T17:49:02.199Z,64.70
2018-03-06T17:51:29.995Z,65.30
2018-03-06T17:53:56.980Z,65.30
2018-03-06T17:56:24.006Z,65.40
2018-03-06T17:58:50.983Z,65.50
2018-03-06T18:01:17.951Z,65.90
2018-03-06T18:03:44.935Z,66.00
2018-03-06T18:06:13.411Z,66.10
2018-03-06T18:08:41.159Z,66.30
2018-03-06T18:11:08.140Z,66.30
2018-03-06T18:13:35.132Z,66.30
2018-03-06T18:16:02.876Z,67.00
2018-03-06T18:18:29.852Z,66.90
2018-03-06T18:20:56.838Z,66.80
2018-03-06T18:23:23.827Z,66.90
2018-03-06T18:25:50.813Z,67.20
2018-03-06T18:28:17.847Z,67.60
2018-03-06T18:30:44.907Z,67.60
2018-03-06T18:33:11.876Z,67.80
2018-03-06T18:35:38.930Z,68.00
2018-03-06T18:38:05.907Z,68.20
2018-03-06T18:40:32.884Z,68.30
2018-03-06T18:43:00.132Z,68.50
2018-03-06T18:45:27.090Z,68.30
2018-03-06T18:47:54.206Z,68.30
2018-03-06T18:50:27.835Z,68.40
2018-03-06T18:52:54.804Z,68.30
2018-03-06T18:55:21.851Z,68.40
2018-03-06T18:57:48.819Z,68.50
2018-03-06T19:00:30.720Z,69.20
2018-03-06T19:03:03.520Z,68.50
2018-03-06T19:05:36.342Z,68.50
2018-03-06T19:08:03.380Z,68.40
2018-03-06T19:10:30.354Z,68.60
2018-03-06T19:12:57.391Z,69.70
2018-03-06T19:15:24.366Z,68.80
2018-03-06T19:17:51.334Z,69.00
2018-03-06T19:20:18.310Z,68.90
2018-03-06T19:22:45.284Z,68.80
2018-03-06T19:25:13.022Z,69.10
2018-03-06T19:27:40.002Z,69.00
2018-03-06T19:30:07.170Z,69.10
2018-03-06T19:32:34.197Z,69.20
2018-03-06T19:35:01.259Z,69.20
2018-03-06T19:37:28.309Z,69.20
2018-03-06T19:39:55.266Z,69.00
2018-03-06T19:42:22.376Z,69.20
2018-03-06T19:44:50.114Z,69.50
2018-03-06T19:47:17.157Z,69.40
2018-03-06T19:49:44.123Z,69.60
2018-03-06T19:52:11.186Z,69.70
2018-03-06T19:54:38.150Z,70.20
2018-03-06T19:57:05.200Z,70.20
2018-03-06T19:59:32.252Z,70.20
2018-03-06T20:01:59.232Z,70.10
2018-03-06T20:04:26.211Z,70.10
2018-03-06T20:06:53.188Z,70.30
2018-03-06T20:09:20.962Z,70.50
2018-03-06T20:11:47.940Z,70.40
2018-03-06T20:14:29.792Z,71.40
2018-03-06T20:16:56.877Z,70.40
2018-03-06T20:19:42.697Z,70.40
2018-03-06T20:22:10.440Z,70.90
2018-03-06T20:24:43.283Z,70.90
2018-03-06T20:27:12.008Z,70.90
2018-03-06T20:29:39.072Z,71.10
2018-03-06T20:32:11.867Z,71.30
2018-03-06T20:34:38.839Z,71.30
2018-03-06T20:37:05.887Z,71.40
2018-03-06T20:39:38.530Z,71.40
2018-03-06T20:42:06.287Z,71.90
2018-03-06T20:44:33.307Z,71.90
2018-03-06T20:47:06.167Z,71.90
2018-03-06T20:49:33.981Z,72.00
2018-03-06T20:52:01.046Z,71.90
2018-03-06T20:54:33.927Z,72.20
2018-03-06T20:57:01.007Z,72.60
2018-03-06T20:59:27.987Z,73.00
2018-03-06T21:01:54.953Z,73.00
2018-03-06T21:04:21.934Z,73.00
2018-03-06T21:06:49.662Z,73.10
2018-03-06T21:09:16.719Z,73.00
2018-03-06T21:11:43.689Z,72.90
2018-03-06T21:14:10.748Z,72.90
2018-03-06T21:16:37.715Z,73.50
2018-03-06T21:19:04.748Z,72.70
2018-03-06T21:21:31.714Z,72.80
2018-03-06T21:23:58.686Z,72.40
2018-03-06T21:26:25.660Z,72.50
2018-03-06T21:28:52.684Z,72.40
2018-03-06T21:31:19.747Z,72.40
2018-03-06T21:33:46.799Z,72.40
2018-03-06T21:36:13.776Z,72.30
2018-03-06T21:38:40.805Z,72.30
2018-03-06T21:41:08.535Z,72.30
2018-03-06T21:43:35.556Z,72.30
2018-03-06T21:46:02.616Z,72.50
2018-03-06T21:48:29.684Z,72.70
2018-03-06T21:50:56.739Z,72.80
2018-03-06T21:53:23.796Z,73.00
2018-03-06T21:55:50.779Z,73.00
2018-03-06T21:58:18.571Z,73.40
2018-03-06T22:00:45.593Z,73.60
2018-03-06T22:03:12.551Z,73.80
2018-03-06T22:05:39.593Z,74.00
2018-03-06T22:08:07.310Z,75.00
2018-03-06T22:10:34.343Z,74.90
2018-03-06T22:13:01.318Z,75.40
2018-03-06T22:15:28.291Z,75.60
2018-03-06T22:17:55.316Z,75.80
2018-03-06T22:20:22.378Z,75.80
2018-03-06T22:22:49.440Z,75.90
2018-03-06T22:25:16.415Z,75.90
2018-03-06T22:27:43.382Z,75.90
2018-03-06T22:30:10.359Z,76.10
2018-03-06T22:32:38.100Z,76.50
2018-03-06T22:35:05.084Z,76.60
2018-03-06T22:37:32.927Z,77.00
2018-03-06T22:42:32.585Z,77.70
2018-03-06T22:44:59.543Z,77.90
2018-03-06T22:47:26.600Z,78.40
2018-03-06T22:49:53.640Z,78.60
2018-03-06T22:52:21.441Z,79.80
2018-03-06T22:54:48.418Z,79.60
2018-03-06T22:57:15.383Z,80.20
2018-03-06T22:59:43.122Z,80.40
2018-03-06T23:02:10.100Z,80.40
2018-03-06T23:04:37.186Z,80.70
2018-03-06T23:07:04.146Z,80.70
2018-03-06T23:09:31.167Z,80.70
2018-03-06T23:11:58.135Z,81.30
2018-03-06T23:14:25.116Z,81.30
2018-03-06T23:16:52.078Z,81.40
2018-03-06T23:19:19.115Z,81.50
2018-03-06T23:21:46.091Z,81.90
2018-03-06T23:24:13.111Z,82.60
2018-03-06T23:26:40.089Z,82.40
2018-03-06T23:29:07.171Z,82.40
2018-03-06T23:31:34.139Z,83.10
2018-03-06T23:34:01.997Z,84.40
2018-03-06T23:36:28.946Z,84.00
2018-03-06T23:38:55.967Z,84.10
2018-03-06T23:41:22.948Z,83.90
2018-03-06T23:43:50.015Z,84.10
2018-03-06T23:46:16.990Z,84.00
2018-03-06T23:48:44.870Z,84.20
2018-03-06T23:51:11.847Z,84.50
2018-03-06T23:53:38.839Z,84.80
2018-03-06T23:56:05.824Z,84.70
2018-03-06T23:58:33.802Z,85.00
